Nearby METAR Reports

On this page are routine METAR weather reports submitted by Bureau of Meteorology Airport observation sites in and surrounding South East Queensland.

Reports are usually updated hourly. Note on small screens you wil need drag or scroll to the righ to view reports that are out of view.

 

YBBN - Brisbane Intl Ar, Australia
Distance from station: E 20km
Updated: Mon, 15-Apr-2024 3:00pm AEST
Few Clouds
Few Clouds
 Wind from NE
Wind: NE 15 km/h
Temperature: 26°C
Dew Point: 20°C
Humidity: 70%
Barometer: 1022 hPa
Clouds: Few Clouds
Visibility: 10 km
Cloud details: Few Clouds 914 m
2024/04/15 05:00 YBBN 150500Z 05008KT 9999 FEW030 26/20 Q1022
YAMB - Amberley, Australia
Distance from station: SW 33km
Updated: Mon, 15-Apr-2024 3:00pm AEST
Few Clouds
Few Clouds
 Wind from E
Wind: E 11 km/h
Temperature: 29°C
Heat Index: 29°C
Dew Point: 16°C
Humidity: 45%
Barometer: 1021 hPa
Clouds: Few Clouds
Visibility: 10 km
Cloud details: Few Clouds 1524 m
2024/04/15 05:00 YAMB 150500Z 08006KT 320V100 9999 FEW050 29/16 Q1021 RF00.0/000.0
YBSU - Sunshine Coast, Australia
Distance from station: N 90km
Updated: Mon, 15-Apr-2024 3:00pm AEST
Clear
Clear
 Wind from ESE
Wind: ESE 15 km/h
Temperature: 26°C
Dew Point: 19°C
Humidity: 65%
Barometer: 1021 hPa
Clouds: Clear
Visibility: 10 km
2024/04/15 05:00 YBSU 150500Z AUTO 12008KT 9999 // NCD 26/19 Q1021 RF00.0/000.0
 
YBCG - Coolangatta Aws, Australia
Distance from station: SSE 102km
Updated: Mon, 15-Apr-2024 3:00pm AEST
Clear
Clear
 Wind from NE
Wind: NE 17 km/h
Temperature: 26°C
Dew Point: 19°C
Humidity: 65%
Barometer: 1022 hPa
Clouds: Clear
Visibility: 10 km
2024/04/15 05:00 YBCG 150500Z AUTO 05009KT 9999 // NCD 26/19 Q1022 RF00.0/000.0
YBWW - Toowoomba, Australia
Distance from station: W 113km
Updated: Mon, 15-Apr-2024 3:00pm AEST
Mostly Cloudy
Mostly Cloudy
 Wind from ENE
Wind: ENE 13 km/h
Temperature: 26°C
Dew Point: 13°C
Humidity: 45%
Barometer: 1022 hPa
Clouds: Mostly Cloudy
Visibility: 10 km
Cloud details: Mostly Cloudy 1768 m
Mostly Cloudy 2103 m
2024/04/15 05:00 YBWW 150500Z AUTO 07007KT 9999 // BKN058 BKN069 26/13 Q1022
YCFS - Coffs Harbour, Australia
Distance from station: S 325km
Updated: Mon, 15-Apr-2024 3:00pm AEST
Clear
Clear
 Wind from NNE
Wind: NNE 24 km/h
Temperature: 26°C
Dew Point: 20°C
Humidity: 70%
Barometer: 1021 hPa
Clouds: Clear
Visibility: 10 km
2024/04/15 05:00 YCFS 150500Z AUTO 03013KT 9999 // NCD 26/20 Q1021 RF00.0/000.0
 
YGLA - Gladstone, Australia
Distance from station: NNW 429km
Updated: Mon, 15-Apr-2024 3:00pm AEST
Overcast
Overcast
 Wind from ESE
Wind: ESE 19 km/h
Temperature: 27°C
Heat Index: 28°C
Dew Point: 19°C
Humidity: 62%
Barometer: 1020 hPa
Clouds: Overcast
Visibility: 10 km
Cloud details: Mostly Cloudy 1951 m
Overcast 2225 m
2024/04/15 05:00 YGLA 150500Z AUTO 11010KT 9999 // BKN064 OVC073 27/19 Q1020
YSTW - Tamworth Airport, Australia
Distance from station: SSW 456km
Updated: Mon, 15-Apr-2024 3:00pm AEST
Partly Cloudy
Partly Cloudy
 Wind from NNW
Wind: NNW 9 km/h
Temperature: 26°C
Dew Point: 14°C
Humidity: 48%
Barometer: 1022 hPa
Clouds: Partly Cloudy
Visibility: 10 km
Cloud details: Partly Cloudy 1463 m
2024/04/15 05:00 YSTW 150500Z AUTO 33005KT 310V010 9999 // SCT048 26/14 Q1022

Metar display script from Saratoga-Weather.org